Sea Amore — H9OC — position and weather

sailwx.info

Track history (hours):
 
Tides and Currents Weather Stations Pressure Air Temp Water Temp Dewpoint Dewpoint Depression Visibility Wind Speed Wind Dir Waves Ship Positions

Sea Amore

Last reported at 2015-Jan-28 16:29 UTC. Time now 2015-Jan-29 04:23 UTC.
Position N 46°35' E 031°12'.

; draft 9.4 m.

Type: Cargo ship. MMSI: 357019000.

Date/timePositionNaut miles runAvg speedWind from/ knotsBaromVisibWave heightAir tempDewpointWater temp
2015-Jan-28 16:29N 46°35' E 031°12'1410.1
2015-Jan-28 15:07N 46°35' E 031°33'610.3
2015-Jan-28 14:33N 46°36' E 031°41'10 9.7
2015-Jan-28 13:34N 46°38' E 031°54'9 8.7
2015-Jan-28 12:33N 46°47' E 031°53'4 4.1
2015-Jan-28 11:33N 46°50' E 031°57'0 0.0
2015-Jan-28 10:33N 46°50' E 031°57'0 0.0
2015-Jan-28 08:33N 46°50' E 031°57'0 0.0
2015-Jan-28 07:33N 46°50' E 031°57'0 0.0
2015-Jan-28 06:30N 46°50' E 031°57'0 0.0
2015-Jan-28 05:29N 46°50' E 031°57'0 0.0
2015-Jan-28 04:32N 46°50' E 031°57'0 0.0
2015-Jan-28 03:32N 46°50' E 031°57'0 0.0
2015-Jan-28 02:32N 46°50' E 031°57'0 0.0
2015-Jan-28 01:32N 46°50' E 031°57'0 0.0
2015-Jan-28 00:32N 46°50' E 031°57'0 0.0
2015-Jan-27 23:32N 46°50' E 031°57'0 0.0
2015-Jan-27 22:32N 46°50' E 031°57'0 0.0
2015-Jan-27 21:32N 46°50' E 031°57'0 0.0
2015-Jan-27 20:32N 46°50' E 031°57'0 0.0
2015-Jan-27 19:32N 46°50' E 031°57'0 0.0
2015-Jan-27 18:32N 46°50' E 031°57'0 0.0
2015-Jan-27 17:32N 46°50' E 031°57'0 0.0
2015-Jan-27 16:32N 46°50' E 031°57'0 0.0
2015-Jan-27 15:32N 46°50' E 031°57'0 0.0
2015-Jan-27 14:32N 46°50' E 031°57'0 0.0
2015-Jan-27 13:32N 46°50' E 031°57'0 0.0
2015-Jan-27 12:32N 46°50' E 031°57'0 0.0
2015-Jan-27 11:32N 46°50' E 031°57'0 0.0
2015-Jan-27 10:32N 46°50' E 031°57'0 0.0
2015-Jan-27 09:32N 46°50' E 031°57'0 0.0
2015-Jan-27 08:32N 46°50' E 031°57'0 0.0
2015-Jan-27 07:32N 46°50' E 031°57'0 0.0
2015-Jan-27 06:32N 46°50' E 031°57'0 0.0
2015-Jan-27 05:32N 46°50' E 031°57'0 0.0
2015-Jan-27 04:32N 46°50' E 031°57'0 0.0
2015-Jan-27 03:32N 46°50' E 031°57'0 0.0
2015-Jan-27 02:32N 46°50' E 031°57'0 0.0
2015-Jan-27 01:32N 46°50' E 031°57'0 0.0
2015-Jan-27 00:32N 46°50' E 031°57'0 0.0
2015-Jan-26 23:32N 46°50' E 031°57'0 0.0
2015-Jan-26 22:32N 46°50' E 031°57'0 0.0
2015-Jan-26 21:32N 46°50' E 031°57'0 0.0
2015-Jan-26 20:32N 46°50' E 031°57'0 0.0
2015-Jan-26 19:32N 46°50' E 031°57'0 0.0
2015-Jan-26 18:32N 46°50' E 031°57'0 0.0
2015-Jan-26 17:29N 46°50' E 031°57'0 0.0
2015-Jan-26 16:31N 46°50' E 031°57'0 0.0
2015-Jan-26 15:31N 46°50' E 031°57'0 0.0
2015-Jan-26 14:31N 46°50' E 031°57'0 0.0
2015-Jan-26 13:31N 46°50' E 031°57'0 0.0
2015-Jan-26 12:31N 46°50' E 031°57'0 0.0
2015-Jan-26 11:31N 46°50' E 031°57'0 0.0
2015-Jan-26 10:31N 46°50' E 031°57'0 0.0
2015-Jan-26 09:31N 46°50' E 031°57'0 0.0
2015-Jan-26 08:31N 46°50' E 031°57'0 0.0
2015-Jan-26 07:31N 46°50' E 031°57'0 0.0
2015-Jan-26 06:31N 46°50' E 031°57'0 0.0
2015-Jan-26 05:31N 46°50' E 031°57'0 0.0
2015-Jan-26 04:31N 46°50' E 031°57'0 0.0
2015-Jan-26 03:31N 46°50' E 031°57'0 0.0
2015-Jan-26 02:31N 46°50' E 031°57'0 0.0
2015-Jan-26 01:31N 46°50' E 031°57'0 0.0
2015-Jan-26 00:31N 46°50' E 031°57'1 1.1
2015-Jan-25 23:33N 46°50' E 031°56'6 6.1
2015-Jan-25 22:33N 46°44' E 031°55'1010.5
2015-Jan-25 21:33N 46°36' E 031°46'1211.8
2015-Jan-25 20:33N 46°36' E 031°29'22 0.6
2015-Jan-24 09:17N 46°18' E 031°10'2 0.2
2015-Jan-23 23:19N 46°17' E 031°08'0 0.0
2015-Jan-23 12:31N 46°17' E 031°08'0 0.0
2015-Jan-23 11:07N 46°17' E 031°08'0 0.0
2015-Jan-23 07:22N 46°17' E 031°08'0 0.0
2015-Jan-23 06:10N 46°17' E 031°08'0 0.1
2015-Jan-23 05:28N 46°17' E 031°08'0 0.0
2015-Jan-23 04:19N 46°17' E 031°08'0 0.0
2015-Jan-23 03:27N 46°17' E 031°08'4 4.5
2015-Jan-23 02:29N 46°14' E 031°03'29413.4
2015-Jan-22 04:33N 41°30' E 029°18'301 7.5
2015-Jan-20 12:26N 37°60' E 024°39'  
Track history (hours):
 
Tides and Currents Weather Stations Pressure Air Temp Water Temp Dewpoint Dewpoint Depression Visibility Wind Speed Wind Dir Waves Ship Positions

Sea Amore

Last reported at 2015-Jan-28 16:29 UTC. Time now 2015-Jan-29 04:23 UTC.
Position N 46°35' E 031°12'.

; draft 9.4 m.

Type: Cargo ship. MMSI: 357019000.

Date/timePositionNaut miles runAvg speedWind from/ knotsBaromVisibWave heightAir tempDewpointWater temp
2015-Jan-28 16:29N 46°35' E 031°12'1410.1
2015-Jan-28 15:07N 46°35' E 031°33'610.3
2015-Jan-28 14:33N 46°36' E 031°41'10 9.7
2015-Jan-28 13:34N 46°38' E 031°54'9 8.7
2015-Jan-28 12:33N 46°47' E 031°53'4 4.1
2015-Jan-28 11:33N 46°50' E 031°57'0 0.0
2015-Jan-28 10:33N 46°50' E 031°57'0 0.0
2015-Jan-28 08:33N 46°50' E 031°57'0 0.0
2015-Jan-28 07:33N 46°50' E 031°57'0 0.0
2015-Jan-28 06:30N 46°50' E 031°57'0 0.0
2015-Jan-28 05:29N 46°50' E 031°57'0 0.0
2015-Jan-28 04:32N 46°50' E 031°57'0 0.0
2015-Jan-28 03:32N 46°50' E 031°57'0 0.0
2015-Jan-28 02:32N 46°50' E 031°57'0 0.0
2015-Jan-28 01:32N 46°50' E 031°57'0 0.0
2015-Jan-28 00:32N 46°50' E 031°57'0 0.0
2015-Jan-27 23:32N 46°50' E 031°57'0 0.0
2015-Jan-27 22:32N 46°50' E 031°57'0 0.0
2015-Jan-27 21:32N 46°50' E 031°57'0 0.0
2015-Jan-27 20:32N 46°50' E 031°57'0 0.0
2015-Jan-27 19:32N 46°50' E 031°57'0 0.0
2015-Jan-27 18:32N 46°50' E 031°57'0 0.0
2015-Jan-27 17:32N 46°50' E 031°57'0 0.0
2015-Jan-27 16:32N 46°50' E 031°57'0 0.0
2015-Jan-27 15:32N 46°50' E 031°57'0 0.0
2015-Jan-27 14:32N 46°50' E 031°57'0 0.0
2015-Jan-27 13:32N 46°50' E 031°57'0 0.0
2015-Jan-27 12:32N 46°50' E 031°57'0 0.0
2015-Jan-27 11:32N 46°50' E 031°57'0 0.0
2015-Jan-27 10:32N 46°50' E 031°57'0 0.0
2015-Jan-27 09:32N 46°50' E 031°57'0 0.0
2015-Jan-27 08:32N 46°50' E 031°57'0 0.0
2015-Jan-27 07:32N 46°50' E 031°57'0 0.0
2015-Jan-27 06:32N 46°50' E 031°57'0 0.0
2015-Jan-27 05:32N 46°50' E 031°57'0 0.0
2015-Jan-27 04:32N 46°50' E 031°57'0 0.0
2015-Jan-27 03:32N 46°50' E 031°57'0 0.0
2015-Jan-27 02:32N 46°50' E 031°57'0 0.0
2015-Jan-27 01:32N 46°50' E 031°57'0 0.0
2015-Jan-27 00:32N 46°50' E 031°57'0 0.0
2015-Jan-26 23:32N 46°50' E 031°57'0 0.0
2015-Jan-26 22:32N 46°50' E 031°57'0 0.0
2015-Jan-26 21:32N 46°50' E 031°57'0 0.0
2015-Jan-26 20:32N 46°50' E 031°57'0 0.0
2015-Jan-26 19:32N 46°50' E 031°57'0 0.0
2015-Jan-26 18:32N 46°50' E 031°57'0 0.0
2015-Jan-26 17:29N 46°50' E 031°57'0 0.0
2015-Jan-26 16:31N 46°50' E 031°57'0 0.0
2015-Jan-26 15:31N 46°50' E 031°57'0 0.0
2015-Jan-26 14:31N 46°50' E 031°57'0 0.0
2015-Jan-26 13:31N 46°50' E 031°57'0 0.0
2015-Jan-26 12:31N 46°50' E 031°57'0 0.0
2015-Jan-26 11:31N 46°50' E 031°57'0 0.0
2015-Jan-26 10:31N 46°50' E 031°57'0 0.0
2015-Jan-26 09:31N 46°50' E 031°57'0 0.0
2015-Jan-26 08:31N 46°50' E 031°57'0 0.0
2015-Jan-26 07:31N 46°50' E 031°57'0 0.0
2015-Jan-26 06:31N 46°50' E 031°57'0 0.0
2015-Jan-26 05:31N 46°50' E 031°57'0 0.0
2015-Jan-26 04:31N 46°50' E 031°57'0 0.0
2015-Jan-26 03:31N 46°50' E 031°57'0 0.0
2015-Jan-26 02:31N 46°50' E 031°57'0 0.0
2015-Jan-26 01:31N 46°50' E 031°57'0 0.0
2015-Jan-26 00:31N 46°50' E 031°57'1 1.1
2015-Jan-25 23:33N 46°50' E 031°56'6 6.1
2015-Jan-25 22:33N 46°44' E 031°55'1010.5
2015-Jan-25 21:33N 46°36' E 031°46'1211.8
2015-Jan-25 20:33N 46°36' E 031°29'22 0.6
2015-Jan-24 09:17N 46°18' E 031°10'2 0.2
2015-Jan-23 23:19N 46°17' E 031°08'0 0.0
2015-Jan-23 12:31N 46°17' E 031°08'0 0.0
2015-Jan-23 11:07N 46°17' E 031°08'0 0.0
2015-Jan-23 07:22N 46°17' E 031°08'0 0.0
2015-Jan-23 06:10N 46°17' E 031°08'0 0.1
2015-Jan-23 05:28N 46°17' E 031°08'0 0.0
2015-Jan-23 04:19N 46°17' E 031°08'0 0.0
2015-Jan-23 03:27N 46°17' E 031°08'4 4.5
2015-Jan-23 02:29N 46°14' E 031°03'29413.4
2015-Jan-22 04:33N 41°30' E 029°18'301 7.5
2015-Jan-20 12:26N 37°60' E 024°39'  

Dump ship's entire track history